Time;durP1;ratioP1;P1;durP2;ratioP2;P2;SDS_P1;SDS_P2;PMS_P1;PMS_P2;Temp;Humidity;BMP_temperature;BMP_pressure;BME280_temperature;BME280_humidity;BME280_pressure;Samples;Min_cycle;Max_cycle;Signal;HPM_P1;HPM_P2
2021/06/02 00:00:18;;;;;;;3.93;2.60;;;;;;;;;;5052087;28;20736;-64
2021/06/02 00:02:47;;;;;;;3.97;2.60;;;;;;;;;;5052222;28;20283;-64
2021/06/02 00:05:13;;;;;;;3.35;2.25;;;;;;;;;;5052198;28;20475;-64
2021/06/02 00:07:42;;;;;;;5.20;2.20;;;;;;;;;;5038952;28;20109;-64
2021/06/02 00:10:08;;;;;;;4.47;2.70;;;;;;;;;;5039053;28;20009;-64
2021/06/02 00:12:33;;;;;;;5.43;2.70;;;;;;;;;;5052058;28;20471;-64
2021/06/02 00:14:59;;;;;;;6.75;2.65;;;;;;;;;;5051260;28;20074;-64
2021/06/02 00:17:24;;;;;;;4.10;2.20;;;;;;;;;;5051713;28;20025;-64
2021/06/02 00:19:49;;;;;;;5.53;2.60;;;;;;;;;;5051556;28;20753;-64
2021/06/02 00:22:15;;;;;;;9.10;2.50;;;;;;;;;;5036952;28;20040;-64
2021/06/02 00:24:40;;;;;;;3.40;1.98;;;;;;;;;;5047459;28;20027;-64
2021/06/02 00:27:09;;;;;;;4.87;2.50;;;;;;;;;;5051397;28;20021;-64
2021/06/02 00:29:35;;;;;;;8.02;2.15;;;;;;;;;;5051350;28;20739;-64
2021/06/02 00:32:02;;;;;;;4.93;2.30;;;;;;;;;;5051738;28;20071;-64
2021/06/02 00:34:28;;;;;;;4.20;2.33;;;;;;;;;;5051470;28;20025;-64
2021/06/02 00:36:53;;;;;;;8.93;2.25;;;;;;;;;;5051155;28;20104;-64
2021/06/02 00:39:18;;;;;;;6.43;2.10;;;;;;;;;;5051267;28;20166;-64
2021/06/02 00:41:44;;;;;;;3.85;2.05;;;;;;;;;;5051403;28;20498;-64
2021/06/02 00:44:19;;;;;;;4.80;2.08;;;;;;;;;;5051427;28;20025;-64
2021/06/02 00:46:45;;;;;;;3.53;1.92;;;;;;;;;;5051269;28;20032;-64
2021/06/02 00:49:24;;;;;;;4.05;2.50;;;;;;;;;;5050873;28;20423;-64
2021/06/02 00:51:56;;;;;;;10.13;2.67;;;;;;;;;;5031449;28;20056;-64
2021/06/02 00:54:22;;;;;;;11.57;3.15;;;;;;;;;;5044018;28;20513;-64
2021/06/02 00:57:07;;;;;;;10.63;3.30;;;;;;;;;;5050656;28;20032;-64
2021/06/02 00:59:34;;;;;;;4.78;3.00;;;;;;;;;;5050381;28;20045;-64
2021/06/02 01:02:00;;;;;;;8.45;3.47;;;;;;;;;;5050523;28;20029;-64
2021/06/02 01:04:28;;;;;;;4.22;3.15;;;;;;;;;;5050502;28;20078;-64
2021/06/02 01:06:54;;;;;;;6.55;3.55;;;;;;;;;;5048200;28;20040;-64
2021/06/02 01:09:23;;;;;;;9.65;3.83;;;;;;;;;;5050481;28;20098;-64
2021/06/02 01:11:49;;;;;;;4.95;3.22;;;;;;;;;;5050564;28;20025;-64
2021/06/02 01:14:15;;;;;;;5.28;4.25;;;;;;;;;;5051048;28;20021;-64
2021/06/02 01:16:40;;;;;;;8.23;3.95;;;;;;;;;;5050264;28;20036;-64
2021/06/02 01:19:08;;;;;;;7.45;3.30;;;;;;;;;;5049785;28;20026;-64
2021/06/02 01:21:34;;;;;;;5.10;3.85;;;;;;;;;;5050546;28;20063;-64
2021/06/02 01:24:00;;;;;;;8.77;3.83;;;;;;;;;;5050638;28;20021;-64
2021/06/02 01:26:27;;;;;;;7.15;3.67;;;;;;;;;;5049640;28;20594;-64
2021/06/02 01:28:53;;;;;;;11.10;3.55;;;;;;;;;;5050628;28;20103;-64
2021/06/02 01:31:35;;;;;;;7.97;3.78;;;;;;;;;;5050451;28;20025;-64
2021/06/02 01:34:06;;;;;;;5.38;3.63;;;;;;;;;;5044324;28;20021;-64
2021/06/02 01:36:44;;;;;;;3.75;3.00;;;;;;;;;;5047085;28;20029;-64
2021/06/02 01:39:18;;;;;;;4.80;3.10;;;;;;;;;;5050737;28;20023;-64
2021/06/02 01:41:43;;;;;;;7.15;3.50;;;;;;;;;;5050245;28;20459;-64
2021/06/02 01:44:26;;;;;;;5.60;3.83;;;;;;;;;;5050241;28;20043;-64
2021/06/02 01:47:04;;;;;;;7.45;3.50;;;;;;;;;;5049201;28;20394;-64
2021/06/02 01:49:48;;;;;;;10.00;3.55;;;;;;;;;;5030184;28;20029;-64
2021/06/02 01:52:28;;;;;;;7.10;3.50;;;;;;;;;;5037529;28;20017;-64
2021/06/02 01:54:53;;;;;;;;;;;;;;;;;;5050981;28;20503;-64
2021/06/02 01:57:30;;;;;;;8.55;3.83;;;;;;;;;;5049598;28;19954;-64
2021/06/02 02:00:10;;;;;;;6.03;3.63;;;;;;;;;;5041308;28;20116;-64
2021/06/02 02:02:59;;;;;;;7.00;3.17;;;;;;;;;;5047244;28;20042;-64
2021/06/02 02:05:41;;;;;;;5.32;3.38;;;;;;;;;;5049816;28;20100;-64
2021/06/02 02:08:27;;;;;;;7.70;3.30;;;;;;;;;;5050069;28;20100;-64
2021/06/02 02:10:54;;;;;;;13.02;4.28;;;;;;;;;;5050406;28;20792;-64
2021/06/02 02:13:20;;;;;;;4.32;3.03;;;;;;;;;;5049903;28;20390;-64
2021/06/02 02:15:48;;;;;;;5.93;3.20;;;;;;;;;;5050104;28;20021;-64
2021/06/02 02:18:22;;;;;;;8.40;3.55;;;;;;;;;;5046028;28;20025;-64
2021/06/02 02:20:53;;;;;;;6.57;2.92;;;;;;;;;;5031766;28;20531;-64
2021/06/02 02:23:22;;;;;;;10.27;3.00;;;;;;;;;;5049876;28;20017;-64
2021/06/02 02:25:47;;;;;;;5.53;3.30;;;;;;;;;;5049922;28;20025;-64
2021/06/02 02:28:31;;;;;;;5.50;3.75;;;;;;;;;;5049797;28;20553;-64
2021/06/02 02:30:59;;;;;;;5.55;3.13;;;;;;;;;;5050055;28;20525;-64
2021/06/02 02:33:27;;;;;;;5.25;3.35;;;;;;;;;;5049854;28;20025;-64
2021/06/02 02:36:10;;;;;;;4.90;3.30;;;;;;;;;;5049408;28;20021;-64
2021/06/02 02:38:36;;;;;;;4.20;3.15;;;;;;;;;;5049301;28;20025;-64
2021/06/02 02:41:01;;;;;;;7.20;4.00;;;;;;;;;;5049562;28;20075;-64
2021/06/02 02:43:44;;;;;;;7.30;3.25;;;;;;;;;;5049561;28;20350;-64
2021/06/02 02:46:10;;;;;;;5.72;3.28;;;;;;;;;;5030171;28;20808;-64
2021/06/02 02:48:53;;;;;;;5.07;3.30;;;;;;;;;;5030256;28;20071;-64
2021/06/02 02:51:34;;;;;;;6.57;3.50;;;;;;;;;;5050181;28;20017;-64
2021/06/02 02:53:59;;;;;;;;;;;;;;;;;;5037521;28;20021;-64
2021/06/02 02:56:28;;;;;;;5.72;3.30;;;;;;;;;;5049435;28;20024;-64
2021/06/02 02:58:59;;;;;;;6.25;4.47;;;;;;;;;;5049538;28;20017;-64
2021/06/02 03:01:27;;;;;;;8.73;3.85;;;;;;;;;;5039413;28;20583;-64
2021/06/02 03:03:56;;;;;;;6.40;3.95;;;;;;;;;;5031179;28;20032;-64
2021/06/02 03:06:27;;;;;;;6.32;3.38;;;;;;;;;;5049653;28;20025;-64
2021/06/02 03:08:52;;;;;;;4.78;3.58;;;;;;;;;;5049945;28;20033;-64
2021/06/02 03:11:20;;;;;;;5.28;3.85;;;;;;;;;;5033361;28;20669;-64
2021/06/02 03:13:58;;;;;;;8.00;3.90;;;;;;;;;;5040943;28;20033;-64
2021/06/02 03:16:25;;;;;;;5.63;4.10;;;;;;;;;;5052959;28;20013;-64
2021/06/02 03:18:52;;;;;;;8.32;3.95;;;;;;;;;;5052616;28;20059;-64
2021/06/02 03:21:28;;;;;;;7.28;3.70;;;;;;;;;;5052875;28;20111;-64
2021/06/02 03:24:12;;;;;;;8.30;4.22;;;;;;;;;;5052837;28;20027;-64
2021/06/02 03:26:39;;;;;;;7.50;3.67;;;;;;;;;;5051201;28;20039;-64
2021/06/02 03:29:14;;;;;;;10.63;4.25;;;;;;;;;;5052713;28;20013;-64
2021/06/02 03:31:45;;;;;;;8.85;4.38;;;;;;;;;;5053090;28;20642;-64
2021/06/02 03:34:19;;;;;;;8.27;4.40;;;;;;;;;;5052708;28;20029;-64
2021/06/02 03:36:59;;;;;;;5.70;3.95;;;;;;;;;;5052241;28;20017;-64
2021/06/02 03:39:27;;;;;;;10.98;3.90;;;;;;;;;;5052282;28;20099;-64
2021/06/02 03:41:53;;;;;;;5.57;4.03;;;;;;;;;;5067890;23;20037;-64
2021/06/02 03:44:27;;;;;;;11.68;3.92;;;;;;;;;;5048353;28;20367;-64
2021/06/02 03:47:11;;;;;;;5.80;3.80;;;;;;;;;;5052166;28;20021;-64
2021/06/02 03:49:56;;;;;;;8.43;4.13;;;;;;;;;;5071934;28;20032;-64
2021/06/02 03:52:40;;;;;;;6.05;4.03;;;;;;;;;;5072467;28;20020;-64
2021/06/02 03:55:10;;;;;;;6.47;3.90;;;;;;;;;;5072471;28;20047;-64
2021/06/02 03:57:43;;;;;;;8.32;4.50;;;;;;;;;;5071038;28;20394;-64
2021/06/02 04:00:09;;;;;;;10.80;4.88;;;;;;;;;;5053311;28;20016;-64
2021/06/02 04:02:53;;;;;;;6.57;4.70;;;;;;;;;;5053487;28;20021;-64
2021/06/02 04:05:21;;;;;;;7.40;4.18;;;;;;;;;;5072237;28;20192;-64
2021/06/02 04:08:07;;;;;;;8.68;4.47;;;;;;;;;;5071475;28;20012;-64
2021/06/02 04:10:39;;;;;;;9.82;4.38;;;;;;;;;;5030595;28;20028;-64
2021/06/02 04:13:11;;;;;;;6.63;3.92;;;;;;;;;;5071586;28;20413;-64
2021/06/02 04:15:37;;;;;;;5.75;4.18;;;;;;;;;;5071877;28;20664;-64
2021/06/02 04:18:03;;;;;;;10.25;4.55;;;;;;;;;;5040481;28;20060;-64
2021/06/02 04:20:28;;;;;;;8.38;4.68;;;;;;;;;;5051396;28;20380;-64
2021/06/02 04:22:54;;;;;;;9.60;3.65;;;;;;;;;;5067860;28;20093;-64
2021/06/02 04:25:20;;;;;;;6.05;4.40;;;;;;;;;;5071637;28;20020;-64
2021/06/02 04:27:46;;;;;;;8.95;4.40;;;;;;;;;;5070682;28;20020;-64
2021/06/02 04:30:18;;;;;;;8.88;4.40;;;;;;;;;;5071561;28;20482;-64
2021/06/02 04:32:45;;;;;;;6.90;3.85;;;;;;;;;;5071107;28;20086;-64
2021/06/02 04:35:14;;;;;;;8.32;4.03;;;;;;;;;;5068628;28;20016;-64
2021/06/02 04:37:40;;;;;;;10.50;4.03;;;;;;;;;;5069474;28;20386;-64
2021/06/02 04:40:06;;;;;;;6.40;4.03;;;;;;;;;;5071185;28;20032;-64
2021/06/02 04:42:38;;;;;;;8.40;3.75;;;;;;;;;;5070882;28;20706;-64
2021/06/02 04:45:04;;;;;;;8.95;4.10;;;;;;;;;;5065011;28;20028;-64
2021/06/02 04:47:32;;;;;;;5.45;3.80;;;;;;;;;;5051028;28;20551;-64
2021/06/02 04:50:00;;;;;;;6.40;4.05;;;;;;;;;;5066248;28;20028;-64
2021/06/02 04:52:31;;;;;;;9.57;4.05;;;;;;;;;;5054503;28;20475;-64
2021/06/02 04:55:11;;;;;;;8.75;4.05;;;;;;;;;;5064333;28;20112;-64
2021/06/02 04:57:39;;;;;;;11.98;4.07;;;;;;;;;;5070641;28;20545;-64
2021/06/02 05:00:16;;;;;;;12.10;4.72;;;;;;;;;;5070834;28;20033;-63
2021/06/02 05:02:44;;;;;;;5.47;3.92;;;;;;;;;;5054780;28;20103;-64
2021/06/02 05:05:21;;;;;;;10.35;3.60;;;;;;;;;;5070580;28;20019;-64
2021/06/02 05:08:05;;;;;;;6.75;4.13;;;;;;;;;;5069554;28;20478;-64
2021/06/02 05:10:42;;;;;;;10.00;3.92;;;;;;;;;;5070338;28;20073;-64
2021/06/02 05:13:26;;;;;;;17.25;3.65;;;;;;;;;;5070479;28;20021;-64
2021/06/02 05:16:10;;;;;;;13.30;4.60;;;;;;;;;;5069451;28;20032;-64
2021/06/02 05:18:35;;;;;;;6.60;3.60;;;;;;;;;;5070044;28;20020;-64
2021/06/02 05:23:31;;;;;;;11.90;4.43;;;;;;;;;;5069652;28;20391;-64
2021/06/02 05:26:15;;;;;;;9.23;4.00;;;;;;;;;;5070012;28;20020;-64
2021/06/02 05:28:59;;;;;;;8.25;3.53;;;;;;;;;;5069620;28;20044;-64
2021/06/02 05:31:30;;;;;;;7.10;3.78;;;;;;;;;;5068709;28;20028;-64
2021/06/02 05:33:55;;;;;;;6.43;3.42;;;;;;;;;;5070519;28;20415;-64
2021/06/02 05:36:39;;;;;;;7.57;4.37;;;;;;;;;;5065658;28;20112;-64
2021/06/02 05:39:09;;;;;;;7.43;3.67;;;;;;;;;;5050292;28;20741;-64
2021/06/02 05:41:53;;;;;;;8.02;3.22;;;;;;;;;;5066721;28;20028;-64
2021/06/02 05:44:37;;;;;;;12.95;3.63;;;;;;;;;;5068936;28;20424;-64
2021/06/02 05:47:11;;;;;;;9.35;3.42;;;;;;;;;;5069940;28;20099;-63
2021/06/02 05:49:48;;;;;;;8.23;3.35;;;;;;;;;;5068202;28;20743;-63
2021/06/02 05:52:32;;;;;;;5.18;3.45;;;;;;;;;;5067838;28;20477;-63
2021/06/02 05:55:11;;;;;;;5.72;2.83;;;;;;;;;;5061702;28;20107;-63
2021/06/02 05:57:45;;;;;;;6.70;2.88;;;;;;;;;;5070002;28;20131;-63
2021/06/02 06:00:38;;;;;;;6.75;3.70;;;;;;;;;;5070004;28;20029;-63
2021/06/02 06:03:18;;;;;;;4.82;3.05;;;;;;;;;;5069550;28;20090;-64
2021/06/02 06:06:02;;;;;;;10.35;2.60;;;;;;;;;;5069883;28;20428;-63
2021/06/02 06:08:39;;;;;;;5.60;3.33;;;;;;;;;;5065324;28;20077;-63
2021/06/02 06:11:28;;;;;;;4.30;3.00;;;;;;;;;;5069708;28;20036;-63
2021/06/02 06:14:22;;;;;;;9.27;3.13;;;;;;;;;;5069796;28;20020;-63
2021/06/02 06:16:56;;;;;;;5.07;2.95;;;;;;;;;;4977786;28;20031;-63
2021/06/02 06:19:32;;;;;;;7.15;3.13;;;;;;;;;;5050170;28;20013;-64
2021/06/02 06:21:57;;;;;;;4.35;2.88;;;;;;;;;;5067470;28;20032;-62
2021/06/02 06:24:31;;;;;;;6.00;2.70;;;;;;;;;;5069314;28;20095;-62
2021/06/02 06:27:02;;;;;;;5.13;2.78;;;;;;;;;;5069660;28;20029;-63
2021/06/02 06:29:43;;;;;;;5.72;3.25;;;;;;;;;;5068107;28;20025;-63
2021/06/02 06:32:08;;;;;;;;;;;;;;;;;;5068521;28;20045;-63
2021/06/02 06:34:34;;;;;;;11.32;3.70;;;;;;;;;;5065101;28;20005;-63
2021/06/02 06:37:00;;;;;;;5.38;3.42;;;;;;;;;;5068388;28;20028;-63
2021/06/02 06:39:34;;;;;;;7.95;3.90;;;;;;;;;;5049993;28;20017;-63
2021/06/02 06:42:00;;;;;;;7.32;3.22;;;;;;;;;;5057037;28;20025;-63
2021/06/02 06:44:26;;;;;;;7.88;3.35;;;;;;;;;;5072542;28;20024;-63
2021/06/02 06:46:54;;;;;;;8.75;3.70;;;;;;;;;;5073215;28;20031;-63
2021/06/02 06:49:20;;;;;;;5.55;3.33;;;;;;;;;;5073726;28;20024;-63
2021/06/02 06:51:52;;;;;;;14.73;4.47;;;;;;;;;;5073567;28;20496;-63
2021/06/02 06:54:18;;;;;;;10.88;3.35;;;;;;;;;;5073578;28;20017;-63
2021/06/02 06:56:44;;;;;;;7.78;3.55;;;;;;;;;;5073076;28;20028;-63
2021/06/02 06:59:10;;;;;;;8.10;3.03;;;;;;;;;;5072424;28;20016;-63
2021/06/02 07:01:37;;;;;;;6.83;3.50;;;;;;;;;;5073378;28;20062;-63
2021/06/02 07:04:03;;;;;;;9.15;4.38;;;;;;;;;;5073306;28;20355;-64
2021/06/02 07:06:29;;;;;;;6.32;2.55;;;;;;;;;;5054078;28;20500;-63
2021/06/02 07:08:55;;;;;;;5.10;2.80;;;;;;;;;;5071917;28;20016;-63
2021/06/02 07:11:20;;;;;;;6.70;2.85;;;;;;;;;;5072838;28;20699;-63
2021/06/02 07:13:46;;;;;;;5.28;2.67;;;;;;;;;;5048177;28;20028;-63
2021/06/02 07:16:12;;;;;;;6.15;3.20;;;;;;;;;;5066198;28;20028;-63
2021/06/02 07:18:39;;;;;;;6.07;3.65;;;;;;;;;;5072592;28;20016;-63
2021/06/02 07:21:05;;;;;;;6.30;3.15;;;;;;;;;;5072111;28;20020;-63
2021/06/02 07:23:31;;;;;;;6.60;2.65;;;;;;;;;;5072821;28;20024;-63
2021/06/02 07:25:58;;;;;;;5.70;2.83;;;;;;;;;;5071045;28;20099;-63
2021/06/02 07:28:34;;;;;;;9.30;3.55;;;;;;;;;;5072553;28;20043;-63
2021/06/02 07:31:00;;;;;;;4.70;2.38;;;;;;;;;;5072991;28;20024;-63
2021/06/02 07:33:25;;;;;;;7.20;2.95;;;;;;;;;;5072353;28;20402;-63
2021/06/02 07:35:50;;;;;;;3.43;2.50;;;;;;;;;;5072848;28;20103;-64
2021/06/02 07:38:15;;;;;;;9.27;3.70;;;;;;;;;;5072234;28;20350;-64
2021/06/02 07:40:41;;;;;;;3.67;2.50;;;;;;;;;;5072213;28;20071;-64
2021/06/02 07:43:06;;;;;;;5.25;3.00;;;;;;;;;;5070776;28;20322;-64
2021/06/02 07:45:32;;;;;;;3.90;2.95;;;;;;;;;;5067830;28;20017;-64
2021/06/02 07:47:57;;;;;;;8.73;2.85;;;;;;;;;;5064393;28;20066;-64
2021/06/02 07:50:22;;;;;;;8.20;2.80;;;;;;;;;;5067124;28;20130;-65
2021/06/02 07:52:47;;;;;;;4.93;2.20;;;;;;;;;;5072142;28;20289;-65
2021/06/02 07:55:13;;;;;;;10.00;2.73;;;;;;;;;;5071706;28;20024;-65
2021/06/02 07:57:38;;;;;;;5.55;2.20;;;;;;;;;;5071983;28;20017;-65
2021/06/02 08:00:04;;;;;;;4.77;2.23;;;;;;;;;;5058160;28;20017;-65
2021/06/02 08:02:29;;;;;;;6.70;2.10;;;;;;;;;;5052278;28;20024;-64
2021/06/02 08:04:56;;;;;;;3.30;1.93;;;;;;;;;;5062752;28;20021;-64
2021/06/02 08:07:21;;;;;;;6.40;2.28;;;;;;;;;;5071924;28;20027;-64
2021/06/02 08:09:48;;;;;;;3.28;2.15;;;;;;;;;;5071950;28;20017;-64
2021/06/02 08:12:14;;;;;;;5.32;2.38;;;;;;;;;;5071402;28;20027;-64
2021/06/02 08:14:39;;;;;;;17.90;3.63;;;;;;;;;;5072127;28;20025;-64
2021/06/02 08:17:04;;;;;;;3.97;2.67;;;;;;;;;;5072003;28;20094;-64
2021/06/02 08:19:29;;;;;;;5.05;2.60;;;;;;;;;;5072156;28;20035;-64
2021/06/02 08:21:55;;;;;;;5.90;2.95;;;;;;;;;;5069235;28;20024;-64
2021/06/02 08:24:22;;;;;;;7.37;2.20;;;;;;;;;;5067636;28;20024;-64
2021/06/02 08:26:47;;;;;;;9.07;2.90;;;;;;;;;;5070538;28;20683;-64
2021/06/02 08:29:13;;;;;;;3.10;1.85;;;;;;;;;;5071512;28;20107;-64
2021/06/02 08:31:38;;;;;;;9.80;3.00;;;;;;;;;;5061731;28;20103;-64
2021/06/02 08:34:03;;;;;;;12.43;3.65;;;;;;;;;;5071036;28;20025;-64
2021/06/02 08:36:29;;;;;;;5.15;2.60;;;;;;;;;;5071171;28;20021;-64
2021/06/02 08:38:54;;;;;;;5.18;2.45;;;;;;;;;;5071214;28;20016;-64
2021/06/02 08:41:19;;;;;;;3.37;2.30;;;;;;;;;;5070744;28;20036;-64
2021/06/02 08:43:46;;;;;;;7.00;2.97;;;;;;;;;;5071372;28;20477;-64
2021/06/02 08:46:13;;;;;;;5.43;2.58;;;;;;;;;;5071107;28;20020;-64
2021/06/02 08:48:38;;;;;;;5.63;2.67;;;;;;;;;;5071071;28;20020;-64
2021/06/02 08:51:04;;;;;;;9.27;2.13;;;;;;;;;;5070528;28;20403;-64
2021/06/02 08:53:29;;;;;;;4.07;2.00;;;;;;;;;;5070512;28;20255;-64
2021/06/02 08:55:54;;;;;;;2.58;1.77;;;;;;;;;;5070925;28;20498;-64
2021/06/02 08:58:20;;;;;;;2.40;1.67;;;;;;;;;;5070900;28;20021;-64
2021/06/02 09:00:46;;;;;;;3.33;1.92;;;;;;;;;;5071124;28;20259;-64
2021/06/02 09:03:11;;;;;;;7.70;2.60;;;;;;;;;;5071325;28;20024;-64
2021/06/02 09:05:37;;;;;;;8.98;2.80;;;;;;;;;;5070195;28;20021;-64
2021/06/02 09:08:02;;;;;;;7.65;2.80;;;;;;;;;;5069876;28;20048;-64
2021/06/02 09:10:27;;;;;;;5.15;2.00;;;;;;;;;;5070706;28;20036;-64
2021/06/02 09:12:58;;;;;;;5.10;2.47;;;;;;;;;;5053304;28;20035;-64
2021/06/02 09:15:23;;;;;;;8.65;2.95;;;;;;;;;;5050960;28;20312;-64
2021/06/02 09:17:59;;;;;;;7.25;2.30;;;;;;;;;;5053313;28;20471;-64
2021/06/02 09:20:31;;;;;;;8.43;3.03;;;;;;;;;;5070567;28;20016;-64
2021/06/02 09:22:56;;;;;;;3.92;2.33;;;;;;;;;;5064440;28;20035;-64
2021/06/02 09:25:24;;;;;;;2.80;2.00;;;;;;;;;;5050824;28;20088;-64
2021/06/02 09:27:54;;;;;;;4.38;1.90;;;;;;;;;;5050497;28;20259;-64
2021/06/02 09:30:24;;;;;;;7.47;2.80;;;;;;;;;;5057836;28;20020;-64
2021/06/02 09:32:52;;;;;;;2.10;1.65;;;;;;;;;;5069995;28;20031;-64
2021/06/02 09:35:17;;;;;;;12.10;3.75;;;;;;;;;;5070712;28;20027;-64
2021/06/02 09:37:53;;;;;;;3.17;2.00;;;;;;;;;;5070233;28;20024;-64
2021/06/02 09:40:29;;;;;;;5.57;2.47;;;;;;;;;;5069103;28;20023;-64
2021/06/02 09:42:54;;;;;;;10.45;2.60;;;;;;;;;;5082678;23;20179;-68
2021/06/02 09:45:21;;;;;;;7.80;2.95;;;;;;;;;;5063258;28;20103;-65
2021/06/02 09:47:48;;;;;;;10.10;3.92;;;;;;;;;;5069566;28;20017;-70
2021/06/02 09:50:16;;;;;;;8.80;2.33;;;;;;;;;;5068626;28;20523;-66
2021/06/02 09:52:49;;;;;;;2.85;1.90;;;;;;;;;;5070332;28;20025;-66
2021/06/02 09:55:23;;;;;;;2.20;1.55;;;;;;;;;;5070229;28;20107;-68
2021/06/02 09:58:09;;;;;;;3.60;1.60;;;;;;;;;;5069705;28;20024;-69
2021/06/02 10:00:35;;;;;;;4.80;2.50;;;;;;;;;;5069319;28;20490;-66
2021/06/02 10:03:02;;;;;;;5.15;1.92;;;;;;;;;;5069919;28;20101;-66
2021/06/02 10:05:35;;;;;;;4.10;1.95;;;;;;;;;;5069966;28;20075;-66
2021/06/02 10:08:00;;;;;;;4.97;2.38;;;;;;;;;;5069397;28;20012;-65
2021/06/02 10:10:25;;;;;;;10.50;4.03;;;;;;;;;;5070106;28;20013;-67
2021/06/02 10:13:01;;;;;;;9.75;2.30;;;;;;;;;;5068674;28;20031;-69
2021/06/02 10:15:32;;;;;;;5.78;2.28;;;;;;;;;;5070167;28;20044;-65
2021/06/02 10:17:58;;;;;;;7.32;1.88;;;;;;;;;;5071113;28;20467;-66
2021/06/02 10:20:23;;;;;;;3.35;1.73;;;;;;;;;;5073892;28;20032;-69
2021/06/02 10:22:52;;;;;;;5.88;1.85;;;;;;;;;;5073636;28;20109;-66
2021/06/02 10:25:18;;;;;;;4.65;1.65;;;;;;;;;;5056428;28;20425;-69
2021/06/02 10:27:43;;;;;;;4.78;1.85;;;;;;;;;;5073728;28;20020;-66
2021/06/02 10:30:09;;;;;;;3.85;1.52;;;;;;;;;;5069561;28;20028;-66
2021/06/02 10:32:34;;;;;;;5.30;2.08;;;;;;;;;;5073311;28;20078;-68
2021/06/02 10:34:59;;;;;;;3.10;1.67;;;;;;;;;;5073896;28;20386;-66
2021/06/02 10:37:24;;;;;;;3.00;1.47;;;;;;;;;;5073272;28;20058;-67
2021/06/02 10:39:54;;;;;;;9.20;1.15;;;;;;;;;;5073363;28;20406;-66
2021/06/02 10:42:22;;;;;;;1.92;1.40;;;;;;;;;;5072863;28;20108;-65
2021/06/02 10:44:51;;;;;;;4.50;1.52;;;;;;;;;;5073249;28;20482;-66
2021/06/02 10:47:20;;;;;;;3.47;1.20;;;;;;;;;;5072983;28;20033;-66
2021/06/02 10:49:45;;;;;;;4.55;1.55;;;;;;;;;;5057962;28;20021;-69
2021/06/02 10:52:11;;;;;;;5.90;2.00;;;;;;;;;;5063046;28;20386;-66
2021/06/02 10:54:40;;;;;;;5.07;1.33;;;;;;;;;;5073595;28;20759;-66
2021/06/02 10:57:07;;;;;;;4.28;1.90;;;;;;;;;;5072838;28;20532;-66
2021/06/02 10:59:33;;;;;;;2.40;1.30;;;;;;;;;;5073162;28;20028;-66
2021/06/02 11:02:04;;;;;;;6.53;2.65;;;;;;;;;;5068814;28;20066;-66
2021/06/02 11:04:30;;;;;;;9.48;3.25;;;;;;;;;;5072952;28;20107;-65
2021/06/02 11:07:10;;;;;;;4.93;2.30;;;;;;;;;;5073074;28;20095;-72
2021/06/02 11:09:50;;;;;;;2.50;1.67;;;;;;;;;;5072859;28;20605;-70
2021/06/02 11:12:15;;;;;;;7.25;2.17;;;;;;;;;;5072620;28;20023;-67
2021/06/02 11:14:40;;;;;;;3.20;1.57;;;;;;;;;;5072746;28;20368;-67
2021/06/02 11:17:10;;;;;;;3.37;1.70;;;;;;;;;;5072152;28;20029;-70
2021/06/02 11:19:36;;;;;;;1.63;1.02;;;;;;;;;;5056916;28;20021;-67
2021/06/02 11:22:03;;;;;;;2.75;1.42;;;;;;;;;;5067235;28;20136;-70
2021/06/02 11:24:31;;;;;;;6.95;1.95;;;;;;;;;;5072781;28;20141;-67
2021/06/02 11:27:16;;;;;;;2.03;1.77;;;;;;;;;;5072403;28;20028;-71
2021/06/02 11:29:48;;;;;;;2.83;1.58;;;;;;;;;;5071181;28;20028;-70
2021/06/02 11:32:16;;;;;;;4.28;1.50;;;;;;;;;;5072858;28;20023;-67
2021/06/02 11:34:42;;;;;;;2.85;1.90;;;;;;;;;;5071108;28;20017;-69
2021/06/02 11:37:13;;;;;;;2.67;1.30;;;;;;;;;;5065993;28;20292;-68
2021/06/02 11:39:39;;;;;;;3.42;1.25;;;;;;;;;;5071882;28;20033;-68
2021/06/02 11:42:05;;;;;;;7.53;1.55;;;;;;;;;;5071901;28;20152;-68
2021/06/02 11:44:31;;;;;;;7.97;2.63;;;;;;;;;;5071861;28;20116;-68
2021/06/02 11:46:57;;;;;;;6.30;2.60;;;;;;;;;;5071253;28;20021;-71
2021/06/02 11:49:32;;;;;;;2.05;1.70;;;;;;;;;;5052854;28;20021;-67
2021/06/02 11:52:27;;;;;;;13.85;6.03;;;;;;;;;;5072512;28;20074;-66
2021/06/02 11:54:53;;;;;;;2.40;1.75;;;;;;;;;;5050468;28;20034;-68
2021/06/02 11:57:22;;;;;;;6.75;2.25;;;;;;;;;;5072287;28;20021;-69
2021/06/02 11:59:48;;;;;;;9.07;2.37;;;;;;;;;;5071401;28;20021;-67
2021/06/02 12:02:13;;;;;;;26.80;13.02;;;;;;;;;;5071786;28;20021;-68
2021/06/02 12:04:38;;;;;;;12.52;6.10;;;;;;;;;;5070821;28;20063;-67
2021/06/02 12:07:18;;;;;;;4.73;1.60;;;;;;;;;;5061034;28;20044;-67
2021/06/02 12:09:47;;;;;;;5.03;1.98;;;;;;;;;;5063915;28;20073;-68
2021/06/02 12:12:12;;;;;;;4.80;1.77;;;;;;;;;;5071436;28;20025;-67
2021/06/02 12:14:38;;;;;;;5.20;1.60;;;;;;;;;;5071387;28;20036;-67
2021/06/02 12:17:04;;;;;;;2.40;1.70;;;;;;;;;;5071559;28;20116;-67
2021/06/02 12:19:32;;;;;;;57.80;28.48;;;;;;;;;;5062012;28;20056;-67
2021/06/02 12:22:08;;;;;;;52.80;18.38;;;;;;;;;;5071482;28;20301;-67
2021/06/02 12:24:33;;;;;;;2.03;1.58;;;;;;;;;;5071320;28;20433;-67
2021/06/02 12:27:01;;;;;;;5.33;1.67;;;;;;;;;;5070817;28;20429;-68
2021/06/02 12:29:30;;;;;;;5.13;2.08;;;;;;;;;;5071425;28;20060;-69
2021/06/02 12:31:58;;;;;;;3.63;1.63;;;;;;;;;;5071321;28;20115;-67
2021/06/02 12:34:26;;;;;;;2.63;1.75;;;;;;;;;;5068505;28;20032;-67
2021/06/02 12:36:53;;;;;;;3.50;1.85;;;;;;;;;;5051013;28;20478;-67
2021/06/02 12:39:22;;;;;;;10.32;4.43;;;;;;;;;;5059440;28;20406;-68
2021/06/02 12:41:49;;;;;;;16.80;1.53;;;;;;;;;;5070789;28;20119;-67
2021/06/02 12:44:14;;;;;;;2.38;1.55;;;;;;;;;;5070466;28;20028;-67
2021/06/02 12:46:53;;;;;;;8.68;2.47;;;;;;;;;;5070168;28;20020;-67
2021/06/02 12:49:18;;;;;;;2.25;1.58;;;;;;;;;;5069819;28;20252;-67
2021/06/02 12:51:48;;;;;;;9.87;2.00;;;;;;;;;;5070068;28;20020;-67
2021/06/02 12:54:15;;;;;;;5.25;2.03;;;;;;;;;;5070763;28;20817;-68
2021/06/02 12:56:40;;;;;;;1.33;1.20;;;;;;;;;;5070415;28;20047;-67
2021/06/02 12:59:06;;;;;;;2.30;1.42;;;;;;;;;;5070107;28;20135;-67
2021/06/02 13:01:32;;;;;;;15.63;3.70;;;;;;;;;;5070772;28;20104;-68
2021/06/02 13:04:01;;;;;;;4.03;1.80;;;;;;;;;;5069851;28;20386;-68
2021/06/02 13:06:29;;;;;;;6.03;1.17;;;;;;;;;;5068633;28;20027;-69
2021/06/02 13:08:55;;;;;;;4.85;1.77;;;;;;;;;;5069674;28;20036;-69
2021/06/02 13:11:26;;;;;;;6.25;1.35;;;;;;;;;;5069958;28;20090;-69
2021/06/02 13:13:51;;;;;;;3.35;1.63;;;;;;;;;;5070188;28;20021;-69
2021/06/02 13:16:17;;;;;;;29.75;4.68;;;;;;;;;;5070097;28;20020;-69
2021/06/02 13:18:53;;;;;;;7.95;1.90;;;;;;;;;;5060441;28;20032;-68
2021/06/02 13:21:20;;;;;;;1.80;1.08;;;;;;;;;;5066177;28;20025;-70
2021/06/02 13:23:46;;;;;;;1.95;1.30;;;;;;;;;;5069269;28;20431;-70
2021/06/02 13:26:14;;;;;;;8.13;1.38;;;;;;;;;;5070617;28;20055;-67
2021/06/02 13:28:55;;;;;;;3.28;1.48;;;;;;;;;;5051971;28;20178;-67
2021/06/02 13:31:21;;;;;;;3.72;1.70;;;;;;;;;;5070402;28;20420;-67
2021/06/02 13:33:47;;;;;;;7.18;1.58;;;;;;;;;;5051924;28;20383;-68
2021/06/02 13:36:17;;;;;;;14.82;1.38;;;;;;;;;;5070253;28;20024;-67
2021/06/02 13:38:42;;;;;;;3.53;1.23;;;;;;;;;;5070069;28;20529;-69
2021/06/02 13:41:19;;;;;;;3.03;0.80;;;;;;;;;;5070095;28;20060;-68
2021/06/02 13:43:44;;;;;;;3.33;1.15;;;;;;;;;;5069759;28;20036;-67
2021/06/02 13:46:10;;;;;;;7.10;1.80;;;;;;;;;;5069870;28;20534;-67
2021/06/02 13:48:37;;;;;;;2.05;1.38;;;;;;;;;;5051087;28;20079;-67
2021/06/02 13:51:33;;;;;;;3.65;1.73;;;;;;;;;;5052551;28;20023;-68
2021/06/02 13:54:14;;;;;;;6.03;1.48;;;;;;;;;;5069709;28;20482;-70
2021/06/02 13:56:47;;;;;;;1.60;1.10;;;;;;;;;;5069380;28;20024;-67
2021/06/02 13:59:13;;;;;;;7.55;1.67;;;;;;;;;;5069976;28;20016;-67
2021/06/02 14:01:39;;;;;;;1.67;0.80;;;;;;;;;;5069852;28;20108;-68
2021/06/02 14:04:05;;;;;;;1.92;1.00;;;;;;;;;;5069677;28;20513;-67
2021/06/02 14:06:31;;;;;;;1.40;1.10;;;;;;;;;;5069094;28;20021;-68
2021/06/02 14:08:56;;;;;;;2.90;1.17;;;;;;;;;;5069986;28;20016;-69
2021/06/02 14:11:26;;;;;;;1.37;1.00;;;;;;;;;;5069900;28;20029;-69
2021/06/02 14:13:51;;;;;;;5.38;1.50;;;;;;;;;;5069631;28;20470;-68
2021/06/02 14:16:19;;;;;;;4.97;1.60;;;;;;;;;;5069704;28;20103;-67
2021/06/02 14:18:44;;;;;;;3.05;1.10;;;;;;;;;;5069821;28;20035;-68
2021/06/02 14:21:10;;;;;;;14.50;2.00;;;;;;;;;;5068854;28;20036;-67
2021/06/02 14:23:36;;;;;;;1.93;1.00;;;;;;;;;;5069442;28;20055;-68
2021/06/02 14:26:01;;;;;;;2.88;1.30;;;;;;;;;;5070126;28;20255;-69
2021/06/02 14:28:26;;;;;;;6.72;1.40;;;;;;;;;;5051690;28;20032;-68
2021/06/02 14:30:51;;;;;;;2.20;1.20;;;;;;;;;;5050012;28;20408;-69
2021/06/02 14:33:17;;;;;;;3.50;1.30;;;;;;;;;;5066564;28;20277;-68
2021/06/02 14:35:42;;;;;;;1.20;1.07;;;;;;;;;;5069192;28;20405;-69
2021/06/02 14:38:07;;;;;;;2.33;1.15;;;;;;;;;;5054914;28;20104;-68
2021/06/02 14:40:32;;;;;;;4.23;1.30;;;;;;;;;;5052441;28;20013;-70
2021/06/02 14:42:57;;;;;;;1.50;1.40;;;;;;;;;;5069819;28;20274;-68
2021/06/02 14:45:23;;;;;;;2.17;1.10;;;;;;;;;;5069813;28;20368;-68
2021/06/02 14:47:48;;;;;;;2.87;1.50;;;;;;;;;;5069113;28;20032;-68
2021/06/02 14:50:13;;;;;;;3.10;1.40;;;;;;;;;;5069954;28;20075;-68
2021/06/02 14:52:38;;;;;;;2.47;1.30;;;;;;;;;;5053671;28;20025;-67
2021/06/02 14:55:04;;;;;;;0.90;0.77;;;;;;;;;;5049758;28;20029;-67
2021/06/02 14:57:29;;;;;;;4.63;1.15;;;;;;;;;;5066154;28;20263;-68
2021/06/02 14:59:54;;;;;;;2.83;1.58;;;;;;;;;;5069713;28;20024;-67